Skip Navigation Links Skip Navigation Links

Current Weather

Schefferville, P.Q.

For information only: do not use for flight planning or navigation.
Latest weather
Observation time Sunday, May 31, 2020 10:04 AM EDT
Local time Sunday, May 31, 2020 10:08 AM EDT
Flight conditions Instrument Meteorological Conditions
Winds
Wind direction North (350°)
Wind speed 7 mph
Visibility 2.25 mi.
Present weather light snow
Sky condition
Ceiling 1,900 ft. overcast
Cloud layer few clouds 600 ft.
Cloud layer scattered clouds 1,000 ft.
Cloud layer overcast 1,900 ft.
Temperature 32°F
Dewpoint 32°F
Altimeter 29.79 in.Hg
Derived measurements
Relative humidity 100%
Wind chill 26°F
Density altitude -1067 ft.
Sea-level pressure 29.88 in.Hg
Remarks
Special weather observation.
Fully automated report.
Visibility.
METAR SPCN31 KWBC 311405 SPECI CYKL 311404Z AUTO 35006KT 2 1/4SM -SN FEW006 SCT010 OVC019 00/M00 A2979 RMK VIS VRB 1 1/4-3 SLP117

Settings

Location code

InnerDrive.Weather 4.0.6770.0 Release CLR 4.0.30319.42000
Copyright ©2018 Inner Drive Technology. All rights reserved. Portions Copyright ©1986-2018 David Braverman.

Find weather

Site navigation


Skip Navigation Links

Place info

Page info

PayPal - The safer, easier way to pay online!

Return home.

Copyright ©2020 Inner Drive Technology. Purveyors of fine, hand-crafted computer software. Page printed 2020-05-31T14:08:39 UTC.